sensor_id;sensor_type;location;lat;lon;timestamp;temperature;humidity
318;DHT22;146;53.448;10.228;2022-07-15T00:00:44;14.80;1.00
318;DHT22;146;53.448;10.228;2022-07-15T00:03:13;14.80;1.00
318;DHT22;146;53.448;10.228;2022-07-15T00:05:42;14.80;1.00
318;DHT22;146;53.448;10.228;2022-07-15T00:08:14;14.80;1.00
318;DHT22;146;53.448;10.228;2022-07-15T00:10:40;14.80;1.00
318;DHT22;146;53.448;10.228;2022-07-15T00:13:14;14.70;1.00
318;DHT22;146;53.448;10.228;2022-07-15T00:15:42;14.70;1.00
318;DHT22;146;53.448;10.228;2022-07-15T00:18:16;14.60;1.00
318;DHT22;146;53.448;10.228;2022-07-15T00:20:43;14.70;1.00
318;DHT22;146;53.448;10.228;2022-07-15T00:23:10;14.70;1.00
318;DHT22;146;53.448;10.228;2022-07-15T00:25:39;14.80;1.00
318;DHT22;146;53.448;10.228;2022-07-15T00:28:14;14.90;1.00
318;DHT22;146;53.448;10.228;2022-07-15T00:30:42;14.90;1.00
318;DHT22;146;53.448;10.228;2022-07-15T00:33:10;14.90;1.00
318;DHT22;146;53.448;10.228;2022-07-15T00:35:42;15.00;1.00
318;DHT22;146;53.448;10.228;2022-07-15T00:38:10;15.00;1.00
318;DHT22;146;53.448;10.228;2022-07-15T00:40:42;15.10;1.00
318;DHT22;146;53.448;10.228;2022-07-15T00:43:10;15.10;1.00
318;DHT22;146;53.448;10.228;2022-07-15T00:45:40;15.20;1.00
318;DHT22;146;53.448;10.228;2022-07-15T00:48:10;15.20;1.00
318;DHT22;146;53.448;10.228;2022-07-15T00:50:39;15.10;1.00
318;DHT22;146;53.448;10.228;2022-07-15T00:53:12;15.10;1.00
318;DHT22;146;53.448;10.228;2022-07-15T00:55:45;15.00;1.00
318;DHT22;146;53.448;10.228;2022-07-15T00:58:16;14.90;1.00
318;DHT22;146;53.448;10.228;2022-07-15T01:00:48;14.70;1.00
318;DHT22;146;53.448;10.228;2022-07-15T01:03:16;14.60;1.00
318;DHT22;146;53.448;10.228;2022-07-15T01:05:47;14.50;1.00
318;DHT22;146;53.448;10.228;2022-07-15T01:08:15;14.40;1.00
318;DHT22;146;53.448;10.228;2022-07-15T01:10:43;14.40;1.00
318;DHT22;146;53.448;10.228;2022-07-15T01:13:11;14.40;1.00
318;DHT22;146;53.448;10.228;2022-07-15T01:15:40;14.30;1.00
318;DHT22;146;53.448;10.228;2022-07-15T01:18:15;14.20;1.00
318;DHT22;146;53.448;10.228;2022-07-15T01:20:46;14.20;1.00
318;DHT22;146;53.448;10.228;2022-07-15T01:23:14;14.20;1.00
318;DHT22;146;53.448;10.228;2022-07-15T01:25:41;14.30;1.00
318;DHT22;146;53.448;10.228;2022-07-15T01:28:13;14.30;1.00
318;DHT22;146;53.448;10.228;2022-07-15T01:30:40;14.40;1.00
318;DHT22;146;53.448;10.228;2022-07-15T01:33:15;14.50;1.00
318;DHT22;146;53.448;10.228;2022-07-15T01:35:46;14.50;1.00
318;DHT22;146;53.448;10.228;2022-07-15T01:38:13;14.70;1.00
318;DHT22;146;53.448;10.228;2022-07-15T01:40:48;14.70;1.00
318;DHT22;146;53.448;10.228;2022-07-15T01:43:15;14.70;1.00
318;DHT22;146;53.448;10.228;2022-07-15T01:45:46;14.70;1.00
318;DHT22;146;53.448;10.228;2022-07-15T01:48:19;14.70;1.00
318;DHT22;146;53.448;10.228;2022-07-15T01:51:05;14.60;1.00
318;DHT22;146;53.448;10.228;2022-07-15T01:53:32;14.50;1.00
318;DHT22;146;53.448;10.228;2022-07-15T01:56:01;14.50;1.00
318;DHT22;146;53.448;10.228;2022-07-15T01:58:27;14.60;1.00
318;DHT22;146;53.448;10.228;2022-07-15T02:00:56;14.60;1.00
318;DHT22;146;53.448;10.228;2022-07-15T02:03:25;14.60;1.00
318;DHT22;146;53.448;10.228;2022-07-15T02:05:52;14.60;1.00
318;DHT22;146;53.448;10.228;2022-07-15T02:08:21;14.60;1.00
318;DHT22;146;53.448;10.228;2022-07-15T02:10:52;14.60;1.00
318;DHT22;146;53.448;10.228;2022-07-15T02:13:19;14.60;1.00
318;DHT22;146;53.448;10.228;2022-07-15T02:15:49;14.50;1.00
318;DHT22;146;53.448;10.228;2022-07-15T02:18:16;14.50;1.00
318;DHT22;146;53.448;10.228;2022-07-15T02:20:43;14.50;1.00
318;DHT22;146;53.448;10.228;2022-07-15T02:23:13;14.60;1.00
318;DHT22;146;53.448;10.228;2022-07-15T02:25:41;14.70;1.00
318;DHT22;146;53.448;10.228;2022-07-15T02:28:08;14.60;1.00
318;DHT22;146;53.448;10.228;2022-07-15T02:30:38;14.70;1.00
318;DHT22;146;53.448;10.228;2022-07-15T02:33:06;14.70;1.00
318;DHT22;146;53.448;10.228;2022-07-15T02:35:33;14.70;1.00
318;DHT22;146;53.448;10.228;2022-07-15T02:38:05;14.60;1.00
318;DHT22;146;53.448;10.228;2022-07-15T02:40:32;14.60;1.00
318;DHT22;146;53.448;10.228;2022-07-15T02:43:02;14.50;1.00
318;DHT22;146;53.448;10.228;2022-07-15T02:45:33;14.30;1.00
318;DHT22;146;53.448;10.228;2022-07-15T02:48:00;14.20;3.20
318;DHT22;146;53.448;10.228;2022-07-15T02:50:28;14.20;4.60
318;DHT22;146;53.448;10.228;2022-07-15T02:52:59;14.10;5.60
318;DHT22;146;53.448;10.228;2022-07-15T02:55:27;14.10;6.40
318;DHT22;146;53.448;10.228;2022-07-15T02:57:54;13.90;6.80
318;DHT22;146;53.448;10.228;2022-07-15T03:00:22;13.90;7.50
318;DHT22;146;53.448;10.228;2022-07-15T03:02:51;13.90;7.90
318;DHT22;146;53.448;10.228;2022-07-15T03:05:21;13.90;8.20
318;DHT22;146;53.448;10.228;2022-07-15T03:07:50;13.90;8.30
318;DHT22;146;53.448;10.228;2022-07-15T03:10:17;14.00;8.30
318;DHT22;146;53.448;10.228;2022-07-15T03:12:44;14.00;8.00
318;DHT22;146;53.448;10.228;2022-07-15T03:15:11;13.90;6.80
318;DHT22;146;53.448;10.228;2022-07-15T03:17:41;14.00;6.10
318;DHT22;146;53.448;10.228;2022-07-15T03:20:09;14.00;5.80
318;DHT22;146;53.448;10.228;2022-07-15T03:22:36;14.00;5.40
318;DHT22;146;53.448;10.228;2022-07-15T03:25:04;14.00;5.10
318;DHT22;146;53.448;10.228;2022-07-15T03:27:31;14.00;5.00
318;DHT22;146;53.448;10.228;2022-07-15T03:30:03;13.90;5.20
318;DHT22;146;53.448;10.228;2022-07-15T03:32:30;14.00;5.20
318;DHT22;146;53.448;10.228;2022-07-15T03:34:58;14.00;5.20
318;DHT22;146;53.448;10.228;2022-07-15T03:37:28;14.00;5.10
318;DHT22;146;53.448;10.228;2022-07-15T03:40:02;14.10;4.90
318;DHT22;146;53.448;10.228;2022-07-15T03:42:29;14.00;4.00
318;DHT22;146;53.448;10.228;2022-07-15T03:44:56;14.00;4.00
318;DHT22;146;53.448;10.228;2022-07-15T03:47:23;14.00;3.60
318;DHT22;146;53.448;10.228;2022-07-15T03:49:50;13.90;3.20
318;DHT22;146;53.448;10.228;2022-07-15T03:52:18;13.90;3.60
318;DHT22;146;53.448;10.228;2022-07-15T03:54:45;14.00;3.60
318;DHT22;146;53.448;10.228;2022-07-15T03:57:15;13.90;3.40
318;DHT22;146;53.448;10.228;2022-07-15T03:59:42;14.00;3.70
318;DHT22;146;53.448;10.228;2022-07-15T04:02:12;14.10;3.40
318;DHT22;146;53.448;10.228;2022-07-15T04:04:42;14.10;3.20
318;DHT22;146;53.448;10.228;2022-07-15T04:07:11;14.20;3.20
318;DHT22;146;53.448;10.228;2022-07-15T04:09:44;14.20;3.10
318;DHT22;146;53.448;10.228;2022-07-15T04:12:20;14.20;2.70
318;DHT22;146;53.448;10.228;2022-07-15T04:14:47;14.20;2.30
318;DHT22;146;53.448;10.228;2022-07-15T04:17:15;14.30;2.10
318;DHT22;146;53.448;10.228;2022-07-15T04:19:52;14.20;1.20
318;DHT22;146;53.448;10.228;2022-07-15T04:22:21;14.20;1.60
318;DHT22;146;53.448;10.228;2022-07-15T04:24:54;14.30;1.70
318;DHT22;146;53.448;10.228;2022-07-15T04:27:21;14.30;1.50
318;DHT22;146;53.448;10.228;2022-07-15T04:29:54;14.30;1.40
318;DHT22;146;53.448;10.228;2022-07-15T04:32:21;14.40;1.60
318;DHT22;146;53.448;10.228;2022-07-15T04:34:47;14.30;1.30
318;DHT22;146;53.448;10.228;2022-07-15T04:44:20;14.40;1.60
318;DHT22;146;53.448;10.228;2022-07-15T04:47:06;14.40;2.10
318;DHT22;146;53.448;10.228;2022-07-15T04:53:27;14.50;2.30
318;DHT22;146;53.448;10.228;2022-07-15T05:05:57;14.60;1.00
318;DHT22;146;53.448;10.228;2022-07-15T05:08:24;14.70;1.00
318;DHT22;146;53.448;10.228;2022-07-15T05:10:51;14.60;1.00
318;DHT22;146;53.448;10.228;2022-07-15T05:13:21;14.70;1.00
318;DHT22;146;53.448;10.228;2022-07-15T05:15:48;14.70;1.00
318;DHT22;146;53.448;10.228;2022-07-15T05:18:24;14.70;1.00
318;DHT22;146;53.448;10.228;2022-07-15T05:20:52;14.70;1.00
318;DHT22;146;53.448;10.228;2022-07-15T05:23:20;14.70;1.00
318;DHT22;146;53.448;10.228;2022-07-15T05:25:47;14.80;1.00
318;DHT22;146;53.448;10.228;2022-07-15T05:28:13;14.70;1.00
318;DHT22;146;53.448;10.228;2022-07-15T05:30:40;14.70;1.00
318;DHT22;146;53.448;10.228;2022-07-15T05:33:07;14.70;1.00
318;DHT22;146;53.448;10.228;2022-07-15T05:35:34;14.70;1.00
318;DHT22;146;53.448;10.228;2022-07-15T05:38:01;14.70;1.00
318;DHT22;146;53.448;10.228;2022-07-15T05:40:29;14.80;1.00
318;DHT22;146;53.448;10.228;2022-07-15T05:42:56;14.90;1.00
318;DHT22;146;53.448;10.228;2022-07-15T05:45:23;15.00;1.00
318;DHT22;146;53.448;10.228;2022-07-15T05:47:51;15.10;1.00
318;DHT22;146;53.448;10.228;2022-07-15T05:50:19;15.20;1.00
318;DHT22;146;53.448;10.228;2022-07-15T05:52:46;15.20;1.00
318;DHT22;146;53.448;10.228;2022-07-15T05:55:13;15.40;1.00
318;DHT22;146;53.448;10.228;2022-07-15T05:57:41;15.30;1.00
318;DHT22;146;53.448;10.228;2022-07-15T06:00:09;15.30;1.00
318;DHT22;146;53.448;10.228;2022-07-15T06:02:36;15.30;1.00
318;DHT22;146;53.448;10.228;2022-07-15T06:05:03;15.20;1.00
318;DHT22;146;53.448;10.228;2022-07-15T06:07:30;15.20;1.00
318;DHT22;146;53.448;10.228;2022-07-15T06:09:57;15.10;1.00
318;DHT22;146;53.448;10.228;2022-07-15T06:12:23;15.10;1.00
318;DHT22;146;53.448;10.228;2022-07-15T06:14:52;15.10;1.00
318;DHT22;146;53.448;10.228;2022-07-15T06:17:18;15.00;1.00
318;DHT22;146;53.448;10.228;2022-07-15T06:19:45;14.90;1.00
318;DHT22;146;53.448;10.228;2022-07-15T06:22:12;14.90;1.00
318;DHT22;146;53.448;10.228;2022-07-15T06:24:39;15.10;1.00
318;DHT22;146;53.448;10.228;2022-07-15T06:27:06;15.10;1.00
318;DHT22;146;53.448;10.228;2022-07-15T06:29:33;15.10;1.00
318;DHT22;146;53.448;10.228;2022-07-15T06:32:01;15.20;1.00
318;DHT22;146;53.448;10.228;2022-07-15T06:34:28;15.20;1.00
318;DHT22;146;53.448;10.228;2022-07-15T06:36:54;15.30;1.00
318;DHT22;146;53.448;10.228;2022-07-15T06:39:21;15.40;1.00
318;DHT22;146;53.448;10.228;2022-07-15T06:41:48;15.50;1.00
318;DHT22;146;53.448;10.228;2022-07-15T06:44:15;15.60;1.00
318;DHT22;146;53.448;10.228;2022-07-15T06:46:42;15.70;1.00
318;DHT22;146;53.448;10.228;2022-07-15T06:49:10;15.80;1.00
318;DHT22;146;53.448;10.228;2022-07-15T06:51:37;15.80;1.00
318;DHT22;146;53.448;10.228;2022-07-15T06:54:04;15.90;1.00
318;DHT22;146;53.448;10.228;2022-07-15T06:56:32;16.00;1.00
318;DHT22;146;53.448;10.228;2022-07-15T06:58:59;16.00;1.00
318;DHT22;146;53.448;10.228;2022-07-15T07:01:26;16.00;1.00
318;DHT22;146;53.448;10.228;2022-07-15T07:03:52;16.00;1.00
318;DHT22;146;53.448;10.228;2022-07-15T07:06:22;16.10;1.00
318;DHT22;146;53.448;10.228;2022-07-15T07:08:49;16.20;1.00
318;DHT22;146;53.448;10.228;2022-07-15T07:11:18;16.30;1.00
318;DHT22;146;53.448;10.228;2022-07-15T07:13:45;16.40;1.00
318;DHT22;146;53.448;10.228;2022-07-15T07:16:12;16.50;1.00
318;DHT22;146;53.448;10.228;2022-07-15T07:18:38;16.50;1.00
318;DHT22;146;53.448;10.228;2022-07-15T07:21:05;16.40;1.00
318;DHT22;146;53.448;10.228;2022-07-15T07:23:33;16.20;1.00
318;DHT22;146;53.448;10.228;2022-07-15T07:26:00;16.10;1.00
318;DHT22;146;53.448;10.228;2022-07-15T07:28:28;16.00;1.00
318;DHT22;146;53.448;10.228;2022-07-15T07:30:55;16.00;1.00
318;DHT22;146;53.448;10.228;2022-07-15T07:33:22;16.00;1.00
318;DHT22;146;53.448;10.228;2022-07-15T07:35:49;16.00;1.00
318;DHT22;146;53.448;10.228;2022-07-15T07:38:17;16.10;1.00
318;DHT22;146;53.448;10.228;2022-07-15T07:40:46;16.10;1.00
318;DHT22;146;53.448;10.228;2022-07-15T07:43:14;16.10;1.00
318;DHT22;146;53.448;10.228;2022-07-15T07:45:41;16.00;1.00
318;DHT22;146;53.448;10.228;2022-07-15T07:48:08;15.90;1.00
318;DHT22;146;53.448;10.228;2022-07-15T07:50:35;16.00;1.00
318;DHT22;146;53.448;10.228;2022-07-15T07:53:02;16.10;1.00
318;DHT22;146;53.448;10.228;2022-07-15T07:55:28;16.20;1.00
318;DHT22;146;53.448;10.228;2022-07-15T07:57:58;16.20;1.00
318;DHT22;146;53.448;10.228;2022-07-15T08:00:26;16.30;1.00
318;DHT22;146;53.448;10.228;2022-07-15T08:02:54;16.30;1.00
318;DHT22;146;53.448;10.228;2022-07-15T08:05:21;16.30;1.00
318;DHT22;146;53.448;10.228;2022-07-15T08:07:48;16.30;1.00
318;DHT22;146;53.448;10.228;2022-07-15T08:10:16;16.30;1.00
318;DHT22;146;53.448;10.228;2022-07-15T08:12:44;16.40;1.00
318;DHT22;146;53.448;10.228;2022-07-15T08:15:13;16.70;1.00
318;DHT22;146;53.448;10.228;2022-07-15T08:17:40;16.90;1.00
318;DHT22;146;53.448;10.228;2022-07-15T08:20:09;17.10;1.00
318;DHT22;146;53.448;10.228;2022-07-15T08:22:36;17.20;1.00
318;DHT22;146;53.448;10.228;2022-07-15T08:25:04;17.20;1.00
318;DHT22;146;53.448;10.228;2022-07-15T08:27:31;17.20;1.00
318;DHT22;146;53.448;10.228;2022-07-15T08:29:59;17.20;1.00
318;DHT22;146;53.448;10.228;2022-07-15T08:32:27;17.10;1.00
318;DHT22;146;53.448;10.228;2022-07-15T08:34:54;16.90;1.00
318;DHT22;146;53.448;10.228;2022-07-15T08:37:25;16.80;1.00
318;DHT22;146;53.448;10.228;2022-07-15T08:39:52;16.80;1.00
318;DHT22;146;53.448;10.228;2022-07-15T08:42:19;16.80;1.00
318;DHT22;146;53.448;10.228;2022-07-15T08:44:46;16.80;1.00
318;DHT22;146;53.448;10.228;2022-07-15T08:47:15;16.90;1.00
318;DHT22;146;53.448;10.228;2022-07-15T08:49:43;16.90;1.00
318;DHT22;146;53.448;10.228;2022-07-15T08:52:11;17.10;1.00
318;DHT22;146;53.448;10.228;2022-07-15T08:54:41;17.20;1.00
318;DHT22;146;53.448;10.228;2022-07-15T08:57:08;17.30;1.00
318;DHT22;146;53.448;10.228;2022-07-15T08:59:36;17.40;1.00
318;DHT22;146;53.448;10.228;2022-07-15T09:02:03;17.50;1.00
318;DHT22;146;53.448;10.228;2022-07-15T09:04:30;17.50;1.00
318;DHT22;146;53.448;10.228;2022-07-15T09:07:01;17.60;1.00
318;DHT22;146;53.448;10.228;2022-07-15T09:09:30;17.40;1.00
318;DHT22;146;53.448;10.228;2022-07-15T09:12:01;17.30;1.00
318;DHT22;146;53.448;10.228;2022-07-15T09:14:29;17.20;1.00
318;DHT22;146;53.448;10.228;2022-07-15T09:17:20;17.20;1.00
318;DHT22;146;53.448;10.228;2022-07-15T09:20:05;17.20;1.00
318;DHT22;146;53.448;10.228;2022-07-15T09:22:49;17.10;1.00
318;DHT22;146;53.448;10.228;2022-07-15T09:25:17;17.20;1.00
318;DHT22;146;53.448;10.228;2022-07-15T09:27:44;17.20;1.00
318;DHT22;146;53.448;10.228;2022-07-15T09:30:17;17.40;1.00
318;DHT22;146;53.448;10.228;2022-07-15T09:33:04;17.50;1.00
318;DHT22;146;53.448;10.228;2022-07-15T09:35:49;17.80;1.00
318;DHT22;146;53.448;10.228;2022-07-15T09:38:32;18.00;1.00
318;DHT22;146;53.448;10.228;2022-07-15T09:40:59;17.90;1.00
318;DHT22;146;53.448;10.228;2022-07-15T09:43:27;17.80;1.00
318;DHT22;146;53.448;10.228;2022-07-15T09:45:56;17.80;1.00
318;DHT22;146;53.448;10.228;2022-07-15T09:48:24;17.80;1.00
318;DHT22;146;53.448;10.228;2022-07-15T09:50:58;17.90;1.00
318;DHT22;146;53.448;10.228;2022-07-15T09:53:25;17.90;1.00
318;DHT22;146;53.448;10.228;2022-07-15T09:55:54;17.80;1.00
318;DHT22;146;53.448;10.228;2022-07-15T09:58:21;17.80;1.00
318;DHT22;146;53.448;10.228;2022-07-15T10:00:48;17.90;1.00
318;DHT22;146;53.448;10.228;2022-07-15T10:03:17;17.90;1.00
318;DHT22;146;53.448;10.228;2022-07-15T10:05:44;18.00;1.00
318;DHT22;146;53.448;10.228;2022-07-15T10:08:14;18.00;1.00
318;DHT22;146;53.448;10.228;2022-07-15T10:10:42;17.90;1.00
318;DHT22;146;53.448;10.228;2022-07-15T10:13:24;17.90;1.00
318;DHT22;146;53.448;10.228;2022-07-15T10:16:07;17.80;1.00
318;DHT22;146;53.448;10.228;2022-07-15T10:18:46;17.90;1.00
318;DHT22;146;53.448;10.228;2022-07-15T10:21:24;18.00;1.00
318;DHT22;146;53.448;10.228;2022-07-15T10:24:02;18.00;1.00
318;DHT22;146;53.448;10.228;2022-07-15T10:26:43;18.00;1.00
318;DHT22;146;53.448;10.228;2022-07-15T10:29:16;18.10;1.00
318;DHT22;146;53.448;10.228;2022-07-15T10:31:44;18.20;1.00
318;DHT22;146;53.448;10.228;2022-07-15T10:34:19;18.30;1.00
318;DHT22;146;53.448;10.228;2022-07-15T10:36:57;18.30;1.00
318;DHT22;146;53.448;10.228;2022-07-15T10:39:26;18.40;1.00
318;DHT22;146;53.448;10.228;2022-07-15T10:41:54;18.40;1.00
318;DHT22;146;53.448;10.228;2022-07-15T10:44:24;18.30;1.00
318;DHT22;146;53.448;10.228;2022-07-15T10:47:16;18.40;1.00
318;DHT22;146;53.448;10.228;2022-07-15T10:49:45;18.60;1.00
318;DHT22;146;53.448;10.228;2022-07-15T10:52:14;18.80;1.00
318;DHT22;146;53.448;10.228;2022-07-15T10:54:43;18.80;1.00
318;DHT22;146;53.448;10.228;2022-07-15T10:57:11;18.80;1.00
318;DHT22;146;53.448;10.228;2022-07-15T10:59:52;18.90;1.00
318;DHT22;146;53.448;10.228;2022-07-15T11:02:21;18.90;1.00
318;DHT22;146;53.448;10.228;2022-07-15T11:04:50;19.00;1.00
318;DHT22;146;53.448;10.228;2022-07-15T11:07:27;19.10;1.00
318;DHT22;146;53.448;10.228;2022-07-15T11:10:16;19.10;1.00
318;DHT22;146;53.448;10.228;2022-07-15T11:13:03;19.10;1.00
318;DHT22;146;53.448;10.228;2022-07-15T11:15:32;19.20;1.00
318;DHT22;146;53.448;10.228;2022-07-15T11:18:00;19.10;1.00
318;DHT22;146;53.448;10.228;2022-07-15T11:20:33;19.10;1.00
318;DHT22;146;53.448;10.228;2022-07-15T11:23:01;19.10;1.00
318;DHT22;146;53.448;10.228;2022-07-15T11:25:31;19.10;1.00
318;DHT22;146;53.448;10.228;2022-07-15T11:28:00;19.00;1.00
318;DHT22;146;53.448;10.228;2022-07-15T11:30:29;19.00;1.00
318;DHT22;146;53.448;10.228;2022-07-15T11:33:00;19.10;1.00
318;DHT22;146;53.448;10.228;2022-07-15T11:35:28;19.10;1.00
318;DHT22;146;53.448;10.228;2022-07-15T11:38:01;19.00;1.00
318;DHT22;146;53.448;10.228;2022-07-15T11:40:30;19.00;1.00
318;DHT22;146;53.448;10.228;2022-07-15T11:43:19;19.10;1.00
318;DHT22;146;53.448;10.228;2022-07-15T11:46:04;19.30;1.00
318;DHT22;146;53.448;10.228;2022-07-15T11:48:37;19.30;1.00
318;DHT22;146;53.448;10.228;2022-07-15T11:51:06;19.40;1.00
318;DHT22;146;53.448;10.228;2022-07-15T11:53:38;19.50;1.00
318;DHT22;146;53.448;10.228;2022-07-15T11:56:06;19.70;1.00
318;DHT22;146;53.448;10.228;2022-07-15T11:58:34;19.70;1.00
318;DHT22;146;53.448;10.228;2022-07-15T12:01:05;19.70;1.00
318;DHT22;146;53.448;10.228;2022-07-15T12:03:33;19.70;1.00
318;DHT22;146;53.448;10.228;2022-07-15T12:06:09;19.60;1.00
318;DHT22;146;53.448;10.228;2022-07-15T12:08:39;19.50;1.00
318;DHT22;146;53.448;10.228;2022-07-15T12:11:21;19.40;1.00
318;DHT22;146;53.448;10.228;2022-07-15T12:13:51;19.40;1.00
318;DHT22;146;53.448;10.228;2022-07-15T12:16:26;19.40;1.00
318;DHT22;146;53.448;10.228;2022-07-15T12:18:55;19.40;1.00
318;DHT22;146;53.448;10.228;2022-07-15T12:21:23;19.40;1.00
318;DHT22;146;53.448;10.228;2022-07-15T12:24:05;19.50;1.00
318;DHT22;146;53.448;10.228;2022-07-15T12:26:33;19.50;1.00
318;DHT22;146;53.448;10.228;2022-07-15T12:29:01;19.50;1.00
318;DHT22;146;53.448;10.228;2022-07-15T12:31:30;19.60;1.00
318;DHT22;146;53.448;10.228;2022-07-15T12:33:57;19.60;1.00
318;DHT22;146;53.448;10.228;2022-07-15T12:36:28;19.70;1.00
318;DHT22;146;53.448;10.228;2022-07-15T12:39:03;19.70;1.00
318;DHT22;146;53.448;10.228;2022-07-15T12:41:31;19.70;1.00
318;DHT22;146;53.448;10.228;2022-07-15T12:44:00;19.70;1.00
318;DHT22;146;53.448;10.228;2022-07-15T12:46:48;19.50;1.00
318;DHT22;146;53.448;10.228;2022-07-15T12:49:36;19.40;1.00
318;DHT22;146;53.448;10.228;2022-07-15T12:52:23;19.40;1.00
318;DHT22;146;53.448;10.228;2022-07-15T12:54:52;19.40;1.00
318;DHT22;146;53.448;10.228;2022-07-15T12:57:26;19.40;1.00
318;DHT22;146;53.448;10.228;2022-07-15T12:59:55;19.40;1.00
318;DHT22;146;53.448;10.228;2022-07-15T13:02:23;19.40;1.00
318;DHT22;146;53.448;10.228;2022-07-15T13:04:51;19.40;1.00
318;DHT22;146;53.448;10.228;2022-07-15T13:07:19;19.20;1.00
318;DHT22;146;53.448;10.228;2022-07-15T13:09:46;19.00;1.00
318;DHT22;146;53.448;10.228;2022-07-15T13:12:13;18.80;1.00
318;DHT22;146;53.448;10.228;2022-07-15T13:14:41;18.50;1.00
318;DHT22;146;53.448;10.228;2022-07-15T13:17:08;18.10;1.00
318;DHT22;146;53.448;10.228;2022-07-15T13:19:35;17.90;1.00
318;DHT22;146;53.448;10.228;2022-07-15T13:22:02;17.80;1.00
318;DHT22;146;53.448;10.228;2022-07-15T13:24:30;17.70;1.00
318;DHT22;146;53.448;10.228;2022-07-15T13:26:57;17.60;1.00
318;DHT22;146;53.448;10.228;2022-07-15T13:29:24;17.60;1.00
318;DHT22;146;53.448;10.228;2022-07-15T13:31:51;17.70;1.00
318;DHT22;146;53.448;10.228;2022-07-15T13:34:18;17.80;1.00
318;DHT22;146;53.448;10.228;2022-07-15T13:36:45;17.90;1.00
318;DHT22;146;53.448;10.228;2022-07-15T13:39:11;17.90;1.00
318;DHT22;146;53.448;10.228;2022-07-15T13:41:39;18.00;1.00
318;DHT22;146;53.448;10.228;2022-07-15T13:44:06;18.20;1.00
318;DHT22;146;53.448;10.228;2022-07-15T13:46:33;18.40;1.00
318;DHT22;146;53.448;10.228;2022-07-15T13:49:00;18.60;1.00
318;DHT22;146;53.448;10.228;2022-07-15T13:51:27;18.60;1.00
318;DHT22;146;53.448;10.228;2022-07-15T13:53:54;18.80;1.00
318;DHT22;146;53.448;10.228;2022-07-15T13:56:21;18.90;1.00
318;DHT22;146;53.448;10.228;2022-07-15T13:58:49;19.00;1.00
318;DHT22;146;53.448;10.228;2022-07-15T14:01:17;19.20;1.00
318;DHT22;146;53.448;10.228;2022-07-15T14:03:43;19.30;1.00
318;DHT22;146;53.448;10.228;2022-07-15T14:06:13;19.50;1.00
318;DHT22;146;53.448;10.228;2022-07-15T14:08:40;19.40;1.00
318;DHT22;146;53.448;10.228;2022-07-15T14:11:07;19.50;1.00
318;DHT22;146;53.448;10.228;2022-07-15T14:13:34;19.60;1.00
318;DHT22;146;53.448;10.228;2022-07-15T14:16:02;19.70;1.00
318;DHT22;146;53.448;10.228;2022-07-15T14:18:29;19.80;1.00
318;DHT22;146;53.448;10.228;2022-07-15T14:21:16;19.90;1.00
318;DHT22;146;53.448;10.228;2022-07-15T14:23:44;19.90;1.00
318;DHT22;146;53.448;10.228;2022-07-15T14:26:11;19.90;1.00
318;DHT22;146;53.448;10.228;2022-07-15T14:28:39;19.90;1.00
318;DHT22;146;53.448;10.228;2022-07-15T14:31:08;19.90;1.00
318;DHT22;146;53.448;10.228;2022-07-15T14:33:37;20.10;1.00
318;DHT22;146;53.448;10.228;2022-07-15T14:36:04;20.10;1.00
318;DHT22;146;53.448;10.228;2022-07-15T14:38:31;20.10;1.00
318;DHT22;146;53.448;10.228;2022-07-15T14:40:58;20.10;1.00
318;DHT22;146;53.448;10.228;2022-07-15T14:43:25;19.90;1.00
318;DHT22;146;53.448;10.228;2022-07-15T14:45:52;19.80;1.00
318;DHT22;146;53.448;10.228;2022-07-15T14:48:20;19.60;1.00
318;DHT22;146;53.448;10.228;2022-07-15T14:50:47;19.60;1.00
318;DHT22;146;53.448;10.228;2022-07-15T14:53:13;19.50;1.00
318;DHT22;146;53.448;10.228;2022-07-15T14:55:40;19.50;1.00
318;DHT22;146;53.448;10.228;2022-07-15T14:58:07;19.60;1.00
318;DHT22;146;53.448;10.228;2022-07-15T15:00:34;19.60;1.00
318;DHT22;146;53.448;10.228;2022-07-15T15:03:01;19.60;1.00
318;DHT22;146;53.448;10.228;2022-07-15T15:05:29;19.70;1.00
318;DHT22;146;53.448;10.228;2022-07-15T15:07:56;19.70;1.00
318;DHT22;146;53.448;10.228;2022-07-15T15:10:23;19.80;1.00
318;DHT22;146;53.448;10.228;2022-07-15T15:12:49;19.80;1.00
318;DHT22;146;53.448;10.228;2022-07-15T15:15:16;19.90;1.00
318;DHT22;146;53.448;10.228;2022-07-15T15:17:43;19.90;1.00
318;DHT22;146;53.448;10.228;2022-07-15T15:20:11;19.80;1.00
318;DHT22;146;53.448;10.228;2022-07-15T15:22:40;19.70;1.00
318;DHT22;146;53.448;10.228;2022-07-15T15:25:07;19.70;1.00
318;DHT22;146;53.448;10.228;2022-07-15T15:27:35;19.80;1.00
318;DHT22;146;53.448;10.228;2022-07-15T15:30:02;19.70;1.00
318;DHT22;146;53.448;10.228;2022-07-15T15:32:29;19.80;1.00
318;DHT22;146;53.448;10.228;2022-07-15T15:34:56;19.80;1.00
318;DHT22;146;53.448;10.228;2022-07-15T15:37:23;19.80;1.00
318;DHT22;146;53.448;10.228;2022-07-15T15:39:51;19.80;1.00
318;DHT22;146;53.448;10.228;2022-07-15T15:42:18;19.90;1.00
318;DHT22;146;53.448;10.228;2022-07-15T15:44:45;19.90;1.00
318;DHT22;146;53.448;10.228;2022-07-15T15:47:12;19.90;1.00
318;DHT22;146;53.448;10.228;2022-07-15T15:49:39;19.90;1.00
318;DHT22;146;53.448;10.228;2022-07-15T15:52:05;19.70;1.00
318;DHT22;146;53.448;10.228;2022-07-15T15:54:33;19.70;1.00
318;DHT22;146;53.448;10.228;2022-07-15T15:57:02;19.80;1.00
318;DHT22;146;53.448;10.228;2022-07-15T15:59:29;19.80;1.00
318;DHT22;146;53.448;10.228;2022-07-15T16:01:56;19.80;1.00
318;DHT22;146;53.448;10.228;2022-07-15T16:04:23;19.80;1.00
318;DHT22;146;53.448;10.228;2022-07-15T16:06:50;19.90;1.00
318;DHT22;146;53.448;10.228;2022-07-15T16:09:17;19.90;1.00
318;DHT22;146;53.448;10.228;2022-07-15T16:11:44;20.00;1.00
318;DHT22;146;53.448;10.228;2022-07-15T16:14:12;20.00;1.00
318;DHT22;146;53.448;10.228;2022-07-15T16:16:39;20.00;1.00
318;DHT22;146;53.448;10.228;2022-07-15T16:19:06;20.10;1.00
318;DHT22;146;53.448;10.228;2022-07-15T16:21:33;20.00;1.00
318;DHT22;146;53.448;10.228;2022-07-15T16:24:17;20.00;1.00
318;DHT22;146;53.448;10.228;2022-07-15T16:26:44;19.90;1.00
318;DHT22;146;53.448;10.228;2022-07-15T16:29:12;19.90;1.00
318;DHT22;146;53.448;10.228;2022-07-15T16:31:39;19.80;1.00
318;DHT22;146;53.448;10.228;2022-07-15T16:34:06;19.80;1.00
318;DHT22;146;53.448;10.228;2022-07-15T16:36:33;19.70;1.00
318;DHT22;146;53.448;10.228;2022-07-15T16:38:59;19.60;1.00
318;DHT22;146;53.448;10.228;2022-07-15T16:41:26;19.60;1.00
318;DHT22;146;53.448;10.228;2022-07-15T16:43:53;19.60;1.00
318;DHT22;146;53.448;10.228;2022-07-15T16:46:21;19.60;1.00
318;DHT22;146;53.448;10.228;2022-07-15T16:48:49;19.60;1.00
318;DHT22;146;53.448;10.228;2022-07-15T16:51:16;19.50;1.00
318;DHT22;146;53.448;10.228;2022-07-15T16:53:42;19.60;1.00
318;DHT22;146;53.448;10.228;2022-07-15T16:56:09;19.50;1.00
318;DHT22;146;53.448;10.228;2022-07-15T16:58:37;19.50;1.00
318;DHT22;146;53.448;10.228;2022-07-15T17:01:05;19.50;1.00
318;DHT22;146;53.448;10.228;2022-07-15T17:03:33;19.50;1.00
318;DHT22;146;53.448;10.228;2022-07-15T17:06:00;19.50;1.00
318;DHT22;146;53.448;10.228;2022-07-15T17:08:26;19.50;1.00